createdAt,value
2018-06-03T00:00:03.220Z,16.3
2018-06-03T00:05:02.395Z,16.2
2018-06-03T00:10:03.075Z,16.2
2018-06-03T00:15:02.727Z,16.0
2018-06-03T00:20:03.343Z,16.2
2018-06-03T00:25:02.879Z,15.8
2018-06-03T00:30:02.430Z,15.8
2018-06-03T00:35:03.071Z,16.0
2018-06-03T00:40:02.770Z,15.8
2018-06-03T00:45:03.345Z,15.8
2018-06-03T00:50:02.923Z,15.8
2018-06-03T00:55:02.524Z,15.8
2018-06-03T01:00:03.140Z,15.8
2018-06-03T01:05:02.682Z,15.8
2018-06-03T01:10:03.367Z,15.8
2018-06-03T01:15:02.938Z,15.8
2018-06-03T01:20:02.602Z,15.6
2018-06-03T01:25:03.181Z,15.8
2018-06-03T01:30:02.774Z,15.8
2018-06-03T01:35:03.334Z,15.8
2018-06-03T01:40:02.971Z,16.2
2018-06-03T01:45:02.627Z,16.0
2018-06-03T01:50:03.227Z,16.2
2018-06-03T01:55:02.748Z,16.2
2018-06-03T02:00:03.333Z,16.2
2018-06-03T02:05:03.021Z,16.2
2018-06-03T02:10:02.736Z,16.2
2018-06-03T02:15:03.326Z,16.2
2018-06-03T02:20:02.899Z,16.2
2018-06-03T02:25:02.522Z,16.2
2018-06-03T02:30:03.098Z,16.2
2018-06-03T02:35:02.770Z,16.3
2018-06-03T02:40:03.560Z,16.3
2018-06-03T02:45:03.147Z,16.6
2018-06-03T02:50:02.761Z,16.6
2018-06-03T02:55:03.398Z,16.3
2018-06-03T03:00:02.950Z,16.2
2018-06-03T03:05:02.752Z,16.2
2018-06-03T03:10:02.437Z,16.2
2018-06-03T03:15:03.090Z,16.3
2018-06-03T03:20:02.641Z,16.3
2018-06-03T03:25:03.187Z,16.6
2018-06-03T03:30:02.827Z,16.6
2018-06-03T03:35:02.670Z,16.3
2018-06-03T03:40:03.378Z,16.3
2018-06-03T03:45:02.947Z,16.3
2018-06-03T03:50:02.552Z,16.3
2018-06-03T03:55:03.200Z,16.3
2018-06-03T04:00:02.740Z,16.3
2018-06-03T04:05:03.313Z,16.3
2018-06-03T04:10:02.911Z,16.3
2018-06-03T04:15:02.541Z,16.3
2018-06-03T04:20:03.100Z,16.3
2018-06-03T04:25:02.759Z,16.3
2018-06-03T04:30:02.414Z,16.2
2018-06-03T04:35:02.905Z,16.7
2018-06-03T04:40:02.596Z,16.7
2018-06-03T04:45:03.151Z,16.7
2018-06-03T04:50:02.708Z,16.7
2018-06-03T04:55:03.369Z,17.0
2018-06-03T05:00:03.210Z,17.2
2018-06-03T05:05:02.831Z,17.3
2018-06-03T05:10:02.484Z,17.5
2018-06-03T05:15:03.133Z,17.7
2018-06-03T05:20:02.731Z,17.7
2018-06-03T05:25:03.316Z,17.8
2018-06-03T05:30:02.921Z,18.1
2018-06-03T05:35:02.555Z,18.2
2018-06-03T05:40:03.243Z,18.2
2018-06-03T05:45:02.767Z,18.2
2018-06-03T05:50:02.389Z,18.6
2018-06-03T05:55:02.991Z,18.7
2018-06-03T06:00:02.600Z,19.0
2018-06-03T06:05:03.183Z,19.1
2018-06-03T06:10:02.786Z,19.1
2018-06-03T06:15:02.424Z,19.0
2018-06-03T06:20:03.104Z,19.2
2018-06-03T06:25:02.760Z,19.5
2018-06-03T06:30:02.435Z,19.1
2018-06-03T06:35:03.021Z,19.1
2018-06-03T06:40:02.688Z,19.2
2018-06-03T06:45:03.398Z,19.2
2018-06-03T06:50:02.995Z,20.0
2018-06-03T06:55:02.800Z,19.7
2018-06-03T07:00:02.431Z,19.5
2018-06-03T07:05:03.067Z,19.7
2018-06-03T07:10:02.690Z,19.5
2018-06-03T07:15:03.390Z,19.7
2018-06-03T07:20:02.962Z,19.3
2018-06-03T07:25:02.690Z,19.3
2018-06-03T07:30:03.217Z,20.0
2018-06-03T07:35:02.774Z,19.3
2018-06-03T07:40:02.433Z,20.0
2018-06-03T07:45:03.081Z,20.2
2018-06-03T07:50:02.732Z,20.2
2018-06-03T07:55:03.288Z,20.2
2018-06-03T08:00:02.845Z,20.2
2018-06-03T08:05:02.439Z,20.2
2018-06-03T08:10:03.235Z,20.2
2018-06-03T08:15:02.767Z,20.3
2018-06-03T08:20:02.410Z,20.8
2018-06-03T08:25:02.990Z,20.3
2018-06-03T08:30:02.552Z,21.6
2018-06-03T08:35:03.159Z,21.2
2018-06-03T08:40:02.809Z,20.6
2018-06-03T08:45:02.422Z,21.0
2018-06-03T08:50:03.029Z,20.8
2018-06-03T08:55:02.641Z,21.2
2018-06-03T09:00:02.418Z,21.3
2018-06-03T09:05:02.997Z,20.7
2018-06-03T09:10:02.619Z,22.6
2018-06-03T09:15:03.295Z,23.2
2018-06-03T09:20:02.851Z,24.0
2018-06-03T09:25:02.607Z,22.7
2018-06-03T09:30:02.470Z,23.2
2018-06-03T09:35:03.315Z,23.2
2018-06-03T09:40:02.920Z,23.0
2018-06-03T09:45:02.444Z,24.5
2018-06-03T09:50:03.016Z,23.6
2018-06-03T09:55:02.651Z,22.6
2018-06-03T10:00:03.262Z,24.6
2018-06-03T10:05:02.912Z,26.0
2018-06-03T10:10:02.643Z,24.2
2018-06-03T10:15:03.216Z,24.2
2018-06-03T10:20:02.821Z,24.8
2018-06-03T10:25:02.390Z,23.6
2018-06-03T10:30:03.022Z,23.2
2018-06-03T10:35:02.652Z,23.2
2018-06-03T10:40:03.315Z,23.2
2018-06-03T10:45:03.115Z,23.2
2018-06-03T10:50:02.754Z,23.2
2018-06-03T10:55:02.400Z,23.0
2018-06-03T11:00:03.070Z,23.2
2018-06-03T11:05:02.695Z,23.1
2018-06-03T11:10:02.487Z,24.2
2018-06-03T11:15:03.015Z,24.7
2018-06-03T11:20:02.678Z,23.7
2018-06-03T11:25:03.228Z,23.2
2018-06-03T11:30:02.788Z,22.6
2018-06-03T11:35:02.460Z,22.6
2018-06-03T11:40:03.139Z,22.6
2018-06-03T11:45:02.749Z,22.7
2018-06-03T11:50:02.405Z,22.6
2018-06-03T11:55:02.964Z,22.7
2018-06-03T12:00:02.595Z,23.2
2018-06-03T12:05:03.355Z,23.2
2018-06-03T12:10:03.071Z,23.1
2018-06-03T12:15:02.702Z,22.7
2018-06-03T12:20:03.324Z,24.5
2018-06-03T12:25:02.902Z,25.0
2018-06-03T12:30:02.474Z,24.7
2018-06-03T12:35:03.138Z,26.0
2018-06-03T12:40:02.797Z,28.3
2018-06-03T12:45:03.350Z,25.7
2018-06-03T12:50:02.895Z,27.7
2018-06-03T12:55:02.479Z,25.8
2018-06-03T13:05:02.555Z,28.7
2018-06-03T13:10:03.269Z,26.7
2018-06-03T13:15:02.848Z,25.8
2018-06-03T13:20:02.491Z,24.7
2018-06-03T13:25:03.065Z,26.2
2018-06-03T13:30:02.677Z,27.2
2018-06-03T13:35:03.242Z,26.5
2018-06-03T13:40:02.898Z,26.2
2018-06-03T13:45:02.558Z,26.2
2018-06-03T13:50:03.287Z,24.6
2018-06-03T13:55:02.808Z,24.8
2018-06-03T14:00:02.378Z,27.1
2018-06-03T14:05:02.964Z,25.7
2018-06-03T14:10:02.857Z,26.1
2018-06-03T14:15:02.502Z,27.3
2018-06-03T14:20:03.142Z,25.2
2018-06-03T14:25:02.671Z,26.5
2018-06-03T14:30:03.253Z,26.8
2018-06-03T14:35:02.879Z,25.3
2018-06-03T14:40:02.537Z,26.6
2018-06-03T14:45:03.310Z,27.1
2018-06-03T14:50:02.933Z,27.2
2018-06-03T14:55:02.573Z,26.7
2018-06-03T15:00:03.281Z,30.2
2018-06-03T15:05:02.866Z,30.1
2018-06-03T15:10:02.798Z,28.5
2018-06-03T15:15:02.396Z,26.6
2018-06-03T15:20:03.080Z,28.7
2018-06-03T15:25:02.746Z,30.2
2018-06-03T15:30:02.383Z,29.6
2018-06-03T15:35:03.014Z,29.6
2018-06-03T15:40:02.662Z,30.1
2018-06-03T15:45:03.276Z,28.0
2018-06-03T15:50:02.927Z,26.8
2018-06-03T15:55:02.541Z,28.2
2018-06-03T16:00:03.137Z,28.2
2018-06-03T16:05:02.835Z,27.2
2018-06-03T16:10:02.865Z,28.8
2018-06-03T16:15:02.403Z,29.7
2018-06-03T16:20:03.027Z,27.5
2018-06-03T16:25:02.792Z,25.5
2018-06-03T16:30:02.429Z,25.1
2018-06-03T16:35:02.990Z,25.7
2018-06-03T16:40:02.620Z,25.7
2018-06-03T16:45:03.267Z,26.6
2018-06-03T16:50:02.790Z,27.5
2018-06-03T16:55:03.354Z,25.6
2018-06-03T17:00:02.906Z,25.7
2018-06-03T17:05:02.541Z,26.0
2018-06-03T17:10:03.264Z,25.5
2018-06-03T17:15:02.843Z,25.7
2018-06-03T17:20:02.489Z,27.7
2018-06-03T17:25:03.074Z,26.2
2018-06-03T17:30:02.678Z,27.2
2018-06-03T17:35:03.267Z,26.5
2018-06-03T17:40:02.887Z,25.8
2018-06-03T17:45:02.409Z,26.7
2018-06-03T17:50:03.014Z,26.2
2018-06-03T17:55:02.637Z,24.8
2018-06-03T18:00:03.244Z,24.6
2018-06-03T18:05:02.808Z,24.6
2018-06-03T18:10:02.406Z,25.0
2018-06-03T18:15:02.977Z,25.3
2018-06-03T18:20:02.621Z,25.1
2018-06-03T18:25:03.247Z,25.1
2018-06-03T18:30:02.823Z,25.2
2018-06-03T18:35:02.536Z,24.3
2018-06-03T18:40:03.124Z,24.0
2018-06-03T18:45:02.650Z,23.7
2018-06-03T18:50:03.197Z,23.1
2018-06-03T18:55:02.900Z,22.7
2018-06-03T19:00:02.828Z,22.7
2018-06-03T19:05:02.479Z,22.7
2018-06-03T19:10:03.321Z,22.5
2018-06-03T19:15:02.892Z,22.3
2018-06-03T19:20:02.526Z,22.1
2018-06-03T19:25:03.209Z,22.1
2018-06-03T19:30:02.882Z,21.8
2018-06-03T19:35:02.520Z,21.7
2018-06-03T19:40:03.166Z,21.6
2018-06-03T19:45:02.769Z,21.5
2018-06-03T19:50:02.407Z,21.2
2018-06-03T19:55:03.022Z,21.2
2018-06-03T20:00:02.621Z,20.8
2018-06-03T20:05:03.214Z,20.8
2018-06-03T20:10:02.744Z,20.7
2018-06-03T20:15:03.355Z,20.6
2018-06-03T20:20:02.941Z,20.3
2018-06-03T20:25:02.514Z,20.2
2018-06-03T20:30:03.113Z,20.2
2018-06-03T20:35:02.715Z,20.2
2018-06-03T20:40:03.361Z,20.1
2018-06-03T20:45:03.177Z,20.1
2018-06-03T20:50:02.744Z,20.0
2018-06-03T20:55:03.341Z,19.7
2018-06-03T21:00:02.864Z,19.7
2018-06-03T21:05:02.514Z,19.5
2018-06-03T21:10:03.125Z,19.3
2018-06-03T21:15:02.703Z,19.2
2018-06-03T21:20:02.477Z,19.2
2018-06-03T21:25:03.038Z,19.1
2018-06-03T21:30:02.639Z,19.1
2018-06-03T21:35:03.345Z,19.0
2018-06-03T21:40:02.926Z,18.8
2018-06-03T21:45:02.587Z,18.8
2018-06-03T21:50:03.068Z,18.7
2018-06-03T21:55:02.722Z,18.7
2018-06-03T22:00:03.278Z,18.8
2018-06-03T22:05:02.897Z,18.8
2018-06-03T22:10:02.682Z,19.1
2018-06-03T22:15:03.286Z,19.2
2018-06-03T22:20:02.850Z,19.0
2018-06-03T22:25:02.488Z,18.7
2018-06-03T22:30:03.158Z,18.6
2018-06-03T22:35:02.731Z,18.6
2018-06-03T22:40:03.360Z,18.5
2018-06-03T22:45:02.912Z,18.6
2018-06-03T22:50:02.544Z,18.5
2018-06-03T22:55:03.251Z,18.2
2018-06-03T23:00:02.840Z,18.2
2018-06-03T23:05:02.938Z,18.2
2018-06-03T23:10:02.585Z,18.1
2018-06-03T23:15:03.317Z,17.8
2018-06-03T23:20:02.817Z,17.8
2018-06-03T23:25:03.358Z,17.8
2018-06-03T23:30:03.019Z,17.7
2018-06-03T23:35:02.738Z,17.7
2018-06-03T23:40:03.339Z,17.7
2018-06-03T23:45:02.950Z,17.5
2018-06-03T23:50:02.532Z,17.3
2018-06-03T23:55:03.135Z,17.1
